createdAt,value
2022-09-22T00:01:37.693Z,77.50
2022-09-22T00:04:11.095Z,77.09
2022-09-22T00:06:43.476Z,76.87
2022-09-22T00:09:14.175Z,77.36
2022-09-22T00:11:44.515Z,77.21
2022-09-22T00:14:15.700Z,77.09
2022-09-22T00:16:47.034Z,76.71
2022-09-22T00:19:20.287Z,76.94
2022-09-22T00:21:49.503Z,77.36
2022-09-22T00:24:19.863Z,77.17
2022-09-22T00:26:48.531Z,77.60
2022-09-22T00:29:17.619Z,77.25
2022-09-22T00:31:46.853Z,77.43
2022-09-22T00:34:19.124Z,77.60
2022-09-22T00:36:48.242Z,78.64
2022-09-22T00:39:18.247Z,78.52
2022-09-22T00:41:49.678Z,78.12
2022-09-22T00:44:41.658Z,78.05
2022-09-22T00:47:40.978Z,77.89
2022-09-22T00:50:17.364Z,77.32
2022-09-22T00:52:51.846Z,79.20
2022-09-22T00:55:26.438Z,78.32
2022-09-22T00:57:56.699Z,78.14
2022-09-22T01:00:25.317Z,77.59
2022-09-22T01:02:57.661Z,78.58
2022-09-22T01:05:30.433Z,78.10
2022-09-22T01:07:58.961Z,77.93
2022-09-22T01:10:27.743Z,77.20
2022-09-22T01:13:06.904Z,77.32
2022-09-22T01:15:44.332Z,77.42
2022-09-22T01:18:21.904Z,77.07
2022-09-22T01:21:21.075Z,76.58
2022-09-22T01:24:26.294Z,77.09
2022-09-22T01:27:10.180Z,77.19
2022-09-22T01:30:15.310Z,77.16
2022-09-22T01:32:52.570Z,77.19
2022-09-22T01:35:28.003Z,77.31
2022-09-22T01:38:06.822Z,76.82
2022-09-22T01:40:43.012Z,76.78
2022-09-22T01:43:19.895Z,77.36
2022-09-22T01:45:50.855Z,77.04
2022-09-22T01:48:23.755Z,77.13
2022-09-22T01:50:58.027Z,77.12
2022-09-22T01:53:31.585Z,77.29
2022-09-22T01:56:06.539Z,77.21
2022-09-22T01:58:40.431Z,77.81
2022-09-22T02:01:15.167Z,76.78
2022-09-22T02:03:50.179Z,77.53
2022-09-22T02:06:24.195Z,77.66
2022-09-22T02:08:57.658Z,77.32
2022-09-22T02:11:26.219Z,77.14
2022-09-22T02:13:54.884Z,77.53
2022-09-22T02:16:27.601Z,77.29
2022-09-22T02:19:11.996Z,76.99
2022-09-22T02:21:43.043Z,77.11
2022-09-22T02:24:31.052Z,76.82
2022-09-22T02:27:01.850Z,77.07
2022-09-22T02:29:35.339Z,77.14
2022-09-22T02:32:10.874Z,77.25
2022-09-22T02:34:39.714Z,76.96
2022-09-22T02:37:20.584Z,77.16
2022-09-22T02:39:57.708Z,77.26
2022-09-22T02:42:33.332Z,76.79
2022-09-22T02:45:10.143Z,76.74
2022-09-22T02:47:44.549Z,76.78
2022-09-22T02:50:15.818Z,76.76
2022-09-22T02:52:44.307Z,76.72
2022-09-22T02:55:14.796Z,77.46
2022-09-22T02:57:43.742Z,77.08
2022-09-22T03:00:13.494Z,77.10
2022-09-22T03:02:43.097Z,77.23
2022-09-22T03:05:11.510Z,76.99
2022-09-22T03:07:40.351Z,76.50
2022-09-22T03:10:10.689Z,76.91
2022-09-22T03:13:02.294Z,76.75
2022-09-22T03:15:30.936Z,76.36
2022-09-22T03:18:00.623Z,76.97
2022-09-22T03:20:29.027Z,76.54
2022-09-22T03:22:57.304Z,76.54
2022-09-22T03:25:25.574Z,77.01
2022-09-22T03:27:53.849Z,77.02
2022-09-22T03:30:22.100Z,76.92
2022-09-22T03:32:50.341Z,76.39
2022-09-22T03:35:20.033Z,76.92
2022-09-22T03:37:48.310Z,76.80
2022-09-22T03:40:16.882Z,77.12
2022-09-22T03:42:45.948Z,76.72
2022-09-22T03:45:15.065Z,77.13
2022-09-22T03:47:43.351Z,77.00
2022-09-22T03:50:12.104Z,76.70
2022-09-22T03:52:43.832Z,77.04
2022-09-22T03:55:12.659Z,76.88
2022-09-22T03:57:40.968Z,76.85
2022-09-22T04:00:11.133Z,77.17
2022-09-22T04:02:39.434Z,76.77
2022-09-22T04:05:09.175Z,76.35
2022-09-22T04:07:37.498Z,76.51
2022-09-22T04:10:08.391Z,76.44
2022-09-22T04:12:37.285Z,76.22
2022-09-22T04:15:07.265Z,76.47
2022-09-22T04:17:37.052Z,76.31
2022-09-22T04:20:07.115Z,76.40
2022-09-22T04:22:35.689Z,76.19
2022-09-22T04:25:04.064Z,76.73
2022-09-22T04:27:33.679Z,76.64
2022-09-22T04:30:01.971Z,76.94
2022-09-22T04:32:30.236Z,76.86
2022-09-22T04:34:58.532Z,77.08
2022-09-22T04:37:26.767Z,77.51
2022-09-22T04:39:55.614Z,77.15
2022-09-22T04:42:23.893Z,77.08
2022-09-22T04:44:57.130Z,76.83
2022-09-22T04:47:25.386Z,76.79
2022-09-22T04:49:53.777Z,76.83
2022-09-22T04:52:22.138Z,77.03
2022-09-22T04:54:50.415Z,77.07
2022-09-22T04:57:20.553Z,77.06
2022-09-22T04:59:49.032Z,76.94
2022-09-22T05:02:19.146Z,77.00
2022-09-22T05:04:47.459Z,76.61
2022-09-22T05:07:16.026Z,76.97
2022-09-22T05:09:44.308Z,77.42
2022-09-22T05:12:12.563Z,77.35
2022-09-22T05:14:40.845Z,77.05
2022-09-22T05:17:09.822Z,77.18
2022-09-22T05:19:39.492Z,76.63
2022-09-22T05:22:07.751Z,76.84
2022-09-22T05:24:36.027Z,76.37
2022-09-22T05:27:04.833Z,77.01
2022-09-22T05:29:33.075Z,77.03
2022-09-22T05:32:01.488Z,77.15
2022-09-22T05:34:29.770Z,76.97
2022-09-22T05:36:59.429Z,77.00
2022-09-22T05:39:27.726Z,76.77
2022-09-22T05:41:55.989Z,76.73
2022-09-22T05:44:24.687Z,76.17
2022-09-22T05:46:52.962Z,76.54
2022-09-22T05:49:21.211Z,76.51
2022-09-22T05:51:52.197Z,76.13
2022-09-22T05:54:23.447Z,74.19
2022-09-22T05:56:52.056Z,70.64
2022-09-22T05:59:20.313Z,68.60
2022-09-22T06:01:48.709Z,67.03
2022-09-22T06:04:17.002Z,65.61
2022-09-22T06:06:45.275Z,64.29
2022-09-22T06:09:13.600Z,63.62
2022-09-22T06:11:43.255Z,62.73
2022-09-22T06:14:11.494Z,61.81
2022-09-22T06:16:40.105Z,61.47
2022-09-22T06:19:08.544Z,60.81
2022-09-22T06:21:37.081Z,59.88
2022-09-22T06:24:06.858Z,59.35
2022-09-22T06:26:35.170Z,58.44
2022-09-22T06:29:04.861Z,58.16
2022-09-22T06:31:33.195Z,57.38
2022-09-22T06:34:04.348Z,57.09
2022-09-22T06:36:36.068Z,57.07
2022-09-22T06:39:05.447Z,56.22
2022-09-22T06:41:34.983Z,56.90
2022-09-22T06:44:05.375Z,56.27
2022-09-22T06:46:35.185Z,55.59
2022-09-22T06:49:03.422Z,59.88
2022-09-22T06:51:34.025Z,62.77
2022-09-22T06:54:05.383Z,68.18
2022-09-22T06:56:39.860Z,63.45
2022-09-22T06:59:11.139Z,62.17
2022-09-22T07:01:40.034Z,65.21
2022-09-22T07:04:08.852Z,61.80
2022-09-22T07:06:37.961Z,58.99
2022-09-22T07:09:06.821Z,57.41
2022-09-22T07:11:39.552Z,57.47
2022-09-22T07:14:12.654Z,57.89
2022-09-22T07:16:41.382Z,58.35
2022-09-22T07:19:10.092Z,60.30
2022-09-22T07:21:38.424Z,65.73
2022-09-22T07:24:08.711Z,68.58
2022-09-22T07:26:40.612Z,66.46
2022-09-22T07:29:13.387Z,70.24
2022-09-22T07:31:43.378Z,70.45
2022-09-22T07:34:12.802Z,70.75
2022-09-22T07:36:41.676Z,67.26
2022-09-22T07:39:11.541Z,68.91
2022-09-22T07:41:43.124Z,68.21
2022-09-22T07:44:34.791Z,72.65
2022-09-22T07:47:04.839Z,72.50
2022-09-22T07:49:33.688Z,74.40
2022-09-22T07:52:02.009Z,73.74
2022-09-22T07:54:30.717Z,72.91
2022-09-22T07:56:59.356Z,75.67
2022-09-22T07:59:29.048Z,70.98
2022-09-22T08:01:57.372Z,72.92
2022-09-22T08:04:26.452Z,69.02
2022-09-22T08:06:56.413Z,68.53
2022-09-22T08:09:26.053Z,65.36
2022-09-22T08:11:55.154Z,66.94
2022-09-22T08:14:24.243Z,69.40
2022-09-22T08:16:54.689Z,69.83
2022-09-22T08:19:24.705Z,64.66
2022-09-22T08:21:54.851Z,67.93
2022-09-22T08:24:24.160Z,66.24
2022-09-22T08:26:55.820Z,69.22
2022-09-22T08:29:24.868Z,66.22
2022-09-22T08:31:54.715Z,64.74
2022-09-22T08:34:23.207Z,63.12
2022-09-22T08:36:51.515Z,58.47
2022-09-22T08:39:20.003Z,59.49
2022-09-22T08:42:05.940Z,59.76
2022-09-22T08:44:42.611Z,59.94
2022-09-22T08:47:41.516Z,58.39
2022-09-22T08:50:59.394Z,59.01
2022-09-22T08:53:32.323Z,58.29
2022-09-22T08:56:14.547Z,57.38
2022-09-22T08:58:49.472Z,56.91
2022-09-22T09:01:43.853Z,57.74
2022-09-22T09:04:56.191Z,57.53
2022-09-22T09:07:37.240Z,59.08
2022-09-22T09:10:28.341Z,58.93
2022-09-22T09:13:23.119Z,57.45
2022-09-22T09:16:08.514Z,58.55
2022-09-22T09:18:42.773Z,56.73
2022-09-22T09:21:16.640Z,55.33
2022-09-22T09:26:37.338Z,57.52
2022-09-22T09:29:12.293Z,57.41
2022-09-22T09:31:46.248Z,57.35
2022-09-22T09:34:17.839Z,55.12
2022-09-22T09:36:51.262Z,54.59
2022-09-22T09:39:32.873Z,54.96
2022-09-22T09:42:02.981Z,55.44
2022-09-22T09:44:40.089Z,53.82
2022-09-22T09:47:19.596Z,51.35
2022-09-22T09:49:52.669Z,50.45
2022-09-22T09:52:26.775Z,53.04
2022-09-22T09:54:56.320Z,53.52
2022-09-22T09:57:28.216Z,52.72
2022-09-22T10:00:31.770Z,52.86
2022-09-22T10:03:13.490Z,50.85
2022-09-22T10:05:41.920Z,54.24
2022-09-22T10:08:21.145Z,53.42
2022-09-22T10:10:49.890Z,51.63
2022-09-22T10:13:32.181Z,52.93
2022-09-22T10:16:23.207Z,54.11
2022-09-22T10:19:03.000Z,51.14
2022-09-22T10:21:31.380Z,53.99
2022-09-22T10:24:02.336Z,51.75
2022-09-22T10:26:33.155Z,47.71
2022-09-22T10:29:16.710Z,48.79
2022-09-22T10:32:06.431Z,48.31
2022-09-22T10:34:37.924Z,49.11
2022-09-22T10:37:10.714Z,49.30
2022-09-22T10:39:47.109Z,50.56
2022-09-22T10:42:32.665Z,52.41
2022-09-22T10:45:07.058Z,52.86
2022-09-22T10:47:51.387Z,48.18
2022-09-22T10:50:50.439Z,47.06
2022-09-22T10:53:51.658Z,48.40
2022-09-22T10:56:33.067Z,48.74
2022-09-22T10:59:42.987Z,47.16
2022-09-22T11:02:44.918Z,44.94
2022-09-22T11:06:01.516Z,44.97
2022-09-22T11:08:56.165Z,45.93
2022-09-22T11:11:51.329Z,50.62
2022-09-22T11:14:36.327Z,47.14
2022-09-22T11:17:22.095Z,46.44
2022-09-22T11:20:14.045Z,46.22
2022-09-22T11:23:07.405Z,50.31
2022-09-22T11:25:58.708Z,48.29
2022-09-22T11:28:47.530Z,45.19
2022-09-22T11:31:28.695Z,46.29
2022-09-22T11:34:27.615Z,48.46
2022-09-22T11:37:25.678Z,46.76
2022-09-22T11:40:28.093Z,44.87
2022-09-22T11:43:11.360Z,45.56
2022-09-22T11:45:53.158Z,45.38
2022-09-22T11:48:39.323Z,44.42
2022-09-22T11:51:28.727Z,44.71
2022-09-22T11:54:22.948Z,43.97
2022-09-22T11:56:55.896Z,45.93
2022-09-22T11:59:38.593Z,45.07
2022-09-22T12:02:22.392Z,46.47
2022-09-22T12:04:57.320Z,43.82
2022-09-22T12:07:30.224Z,42.91
2022-09-22T12:10:02.084Z,47.40
2022-09-22T12:12:33.203Z,43.91
2022-09-22T12:15:16.663Z,48.58
2022-09-22T12:17:52.725Z,42.08
2022-09-22T12:20:37.427Z,44.66
2022-09-22T12:23:19.962Z,41.75
2022-09-22T12:25:54.051Z,42.72
2022-09-22T12:28:26.827Z,45.22
2022-09-22T12:31:06.055Z,42.67
2022-09-22T12:33:38.716Z,49.15
2022-09-22T12:36:08.315Z,41.95
2022-09-22T12:38:37.319Z,50.53
2022-09-22T12:41:06.617Z,41.44
2022-09-22T12:43:36.609Z,42.47
2022-09-22T12:46:27.904Z,44.90
2022-09-22T12:48:57.941Z,45.24
2022-09-22T12:51:33.275Z,44.75
2022-09-22T12:54:41.325Z,41.78
2022-09-22T12:57:31.373Z,43.07
2022-09-22T13:00:32.219Z,43.53
2022-09-22T13:03:23.906Z,46.75
2022-09-22T13:05:54.809Z,45.69
2022-09-22T13:08:47.171Z,40.69
2022-09-22T13:11:15.537Z,48.08
2022-09-22T13:13:47.891Z,47.66
2022-09-22T13:16:36.662Z,42.14
2022-09-22T13:19:14.857Z,41.19
2022-09-22T13:21:44.480Z,41.19
2022-09-22T13:24:27.382Z,41.91
2022-09-22T13:27:05.852Z,50.92
2022-09-22T13:29:35.026Z,49.79
2022-09-22T13:32:26.683Z,41.75
2022-09-22T13:34:55.463Z,43.39
2022-09-22T13:37:25.880Z,42.09
2022-09-22T13:39:55.622Z,45.90
2022-09-22T13:42:32.502Z,42.33
2022-09-22T13:45:06.427Z,46.60
2022-09-22T13:47:36.001Z,41.92
2022-09-22T13:50:08.194Z,45.57
2022-09-22T13:52:40.429Z,41.89
2022-09-22T13:55:14.972Z,41.91
2022-09-22T13:57:43.808Z,41.99
2022-09-22T14:00:24.591Z,42.80
2022-09-22T14:02:53.835Z,41.66
2022-09-22T14:05:26.897Z,44.21
2022-09-22T14:08:17.190Z,41.55
2022-09-22T14:10:49.464Z,46.38
2022-09-22T14:13:44.717Z,45.07
2022-09-22T14:16:22.282Z,41.96
2022-09-22T14:18:54.883Z,42.00
2022-09-22T14:21:23.616Z,44.79
2022-09-22T14:23:53.621Z,45.14
2022-09-22T14:26:33.398Z,41.27
2022-09-22T14:29:15.819Z,43.11
2022-09-22T14:31:48.213Z,40.40
2022-09-22T14:34:24.597Z,39.71
2022-09-22T14:36:54.779Z,41.93
2022-09-22T14:39:31.872Z,39.83
2022-09-22T14:42:11.824Z,46.78
2022-09-22T14:44:45.737Z,43.90
2022-09-22T14:47:27.351Z,44.06
2022-09-22T14:50:19.193Z,42.08
2022-09-22T14:53:01.130Z,40.63
2022-09-22T14:55:35.932Z,43.22
2022-09-22T14:58:09.610Z,40.71
2022-09-22T15:00:55.468Z,40.27
2022-09-22T15:03:29.928Z,40.45
2022-09-22T15:06:08.924Z,41.75
2022-09-22T15:08:37.824Z,45.71
2022-09-22T15:11:08.061Z,45.52
2022-09-22T15:13:41.777Z,40.09
2022-09-22T15:16:37.827Z,41.16
2022-09-22T15:19:07.854Z,42.20
2022-09-22T15:21:47.464Z,48.86
2022-09-22T15:24:21.195Z,41.26
2022-09-22T15:26:50.864Z,48.86
2022-09-22T15:29:19.102Z,42.09
2022-09-22T15:31:47.806Z,47.27
2022-09-22T15:34:16.516Z,47.15
2022-09-22T15:36:50.049Z,48.29
2022-09-22T15:39:23.114Z,48.43
2022-09-22T15:41:54.351Z,44.26
2022-09-22T15:44:22.817Z,42.90
2022-09-22T15:46:54.480Z,42.05
2022-09-22T15:49:26.510Z,42.51
2022-09-22T15:51:56.567Z,44.83
2022-09-22T15:54:26.183Z,43.49
2022-09-22T15:56:57.566Z,43.81
2022-09-22T15:59:28.969Z,45.60
2022-09-22T16:01:59.494Z,50.84
2022-09-22T16:04:34.254Z,45.64
2022-09-22T16:07:08.485Z,49.11
2022-09-22T16:09:38.654Z,49.66
2022-09-22T16:12:11.150Z,52.19
2022-09-22T16:14:41.561Z,50.05
2022-09-22T16:17:09.784Z,52.42
2022-09-22T16:19:38.056Z,45.97
2022-09-22T16:22:06.351Z,48.72
2022-09-22T16:24:34.590Z,52.74
2022-09-22T16:27:04.162Z,53.75
2022-09-22T16:29:37.430Z,54.36
2022-09-22T16:32:05.881Z,51.64
2022-09-22T16:34:34.887Z,54.23
2022-09-22T16:37:03.501Z,47.79
2022-09-22T16:39:31.779Z,51.22
2022-09-22T16:42:00.025Z,47.83
2022-09-22T16:44:28.298Z,48.79
2022-09-22T16:46:58.447Z,54.23
2022-09-22T16:49:27.124Z,53.85
2022-09-22T16:51:55.602Z,50.04
2022-09-22T16:54:24.794Z,54.30
2022-09-22T16:56:54.275Z,53.20
2022-09-22T16:59:24.211Z,49.03
2022-09-22T17:01:52.587Z,56.60
2022-09-22T17:04:22.290Z,54.90
2022-09-22T17:06:50.869Z,55.80
2022-09-22T17:09:19.582Z,54.79
2022-09-22T17:11:49.368Z,51.57
2022-09-22T17:14:21.175Z,55.82
2022-09-22T17:16:52.139Z,55.38
2022-09-22T17:19:23.943Z,54.96
2022-09-22T17:21:55.199Z,54.89
2022-09-22T17:24:25.047Z,54.97
2022-09-22T17:26:55.870Z,55.52
2022-09-22T17:29:26.693Z,54.01
2022-09-22T17:31:57.633Z,54.69
2022-09-22T17:34:28.725Z,55.14
2022-09-22T17:36:57.326Z,55.20
2022-09-22T17:39:27.093Z,55.54
2022-09-22T17:41:55.707Z,55.56
2022-09-22T17:44:28.520Z,55.78
2022-09-22T17:47:14.784Z,56.05
2022-09-22T17:50:02.089Z,56.38
2022-09-22T17:52:47.640Z,56.83
2022-09-22T17:55:22.541Z,57.23
2022-09-22T17:57:52.697Z,57.62
2022-09-22T18:00:23.497Z,57.23
2022-09-22T18:02:54.929Z,58.10
2022-09-22T18:05:27.339Z,58.05
2022-09-22T18:07:58.521Z,58.08
2022-09-22T18:10:34.233Z,58.37
2022-09-22T18:13:04.339Z,58.68
2022-09-22T18:15:32.646Z,58.89
2022-09-22T18:18:00.912Z,59.90
2022-09-22T18:20:34.953Z,59.22
2022-09-22T18:23:03.681Z,59.31
2022-09-22T18:25:33.941Z,58.50
2022-09-22T18:28:03.926Z,59.69
2022-09-22T18:30:33.139Z,59.80
2022-09-22T18:33:01.996Z,59.86
2022-09-22T18:35:31.860Z,60.14
2022-09-22T18:38:00.338Z,60.40
2022-09-22T18:40:30.149Z,60.38
2022-09-22T18:42:58.430Z,60.11
2022-09-22T18:45:27.111Z,61.40
2022-09-22T18:47:59.471Z,61.19
2022-09-22T18:50:35.692Z,61.31
2022-09-22T18:53:05.635Z,61.55
2022-09-22T18:55:33.901Z,62.07
2022-09-22T18:58:02.298Z,62.75
2022-09-22T19:00:31.539Z,63.18
2022-09-22T19:03:00.294Z,62.44
2022-09-22T19:05:28.738Z,62.36
2022-09-22T19:08:00.408Z,62.15
2022-09-22T19:10:30.023Z,62.25
2022-09-22T19:12:59.606Z,62.34
2022-09-22T19:15:28.108Z,62.52
2022-09-22T19:17:56.341Z,62.69
2022-09-22T19:20:24.934Z,62.85
2022-09-22T19:22:54.082Z,63.08
2022-09-22T19:25:23.570Z,63.22
2022-09-22T19:27:54.172Z,63.30
2022-09-22T19:30:25.773Z,63.25
2022-09-22T19:32:56.877Z,63.33
2022-09-22T19:35:25.478Z,63.60
2022-09-22T19:37:53.792Z,63.79
2022-09-22T19:40:24.422Z,63.85
2022-09-22T19:42:55.238Z,63.81
2022-09-22T19:45:25.001Z,63.97
2022-09-22T19:47:56.328Z,64.06
2022-09-22T19:50:24.899Z,64.34
2022-09-22T19:52:53.510Z,64.48
2022-09-22T19:55:22.120Z,64.57
2022-09-22T19:57:52.333Z,64.75
2022-09-22T20:00:26.051Z,64.67
2022-09-22T20:02:58.644Z,64.88
2022-09-22T20:05:31.573Z,65.02
2022-09-22T20:07:59.962Z,64.73
2022-09-22T20:10:28.850Z,64.71
2022-09-22T20:12:57.105Z,65.00
2022-09-22T20:15:28.080Z,64.89
2022-09-22T20:17:56.342Z,65.17
2022-09-22T20:20:26.963Z,65.12
2022-09-22T20:23:00.488Z,65.22
2022-09-22T20:25:31.860Z,65.07
2022-09-22T20:28:00.403Z,65.14
2022-09-22T20:30:30.066Z,65.08
2022-09-22T20:32:59.085Z,65.77
2022-09-22T20:35:27.669Z,65.00
2022-09-22T20:37:59.291Z,65.69
2022-09-22T20:40:29.120Z,65.69
2022-09-22T20:42:58.093Z,65.68
2022-09-22T20:45:27.322Z,65.58
2022-09-22T20:47:57.101Z,65.69
2022-09-22T20:50:25.647Z,65.63
2022-09-22T20:52:55.420Z,65.92
2022-09-22T20:55:23.827Z,66.39
2022-09-22T20:57:52.544Z,66.05
2022-09-22T21:00:21.052Z,66.12
2022-09-22T21:02:49.395Z,66.13
2022-09-22T21:05:19.411Z,66.11
2022-09-22T21:07:47.647Z,66.29
2022-09-22T21:10:33.384Z,66.50
2022-09-22T21:13:04.030Z,66.48
2022-09-22T21:15:32.302Z,66.35
2022-09-22T21:18:00.610Z,66.09
2022-09-22T21:20:30.256Z,66.73
2022-09-22T21:22:58.508Z,66.75
2022-09-22T21:25:26.780Z,67.06
2022-09-22T21:27:55.017Z,66.92
2022-09-22T21:30:24.337Z,66.80
2022-09-22T21:32:52.557Z,66.83
2022-09-22T21:35:20.905Z,66.96
2022-09-22T21:37:50.656Z,66.96
2022-09-22T21:40:19.164Z,67.10
2022-09-22T21:42:47.465Z,67.05
2022-09-22T21:45:15.971Z,67.27
2022-09-22T21:47:44.552Z,66.79
2022-09-22T21:50:12.935Z,67.33
2022-09-22T21:52:41.192Z,67.32
2022-09-22T21:55:11.171Z,67.64
2022-09-22T21:57:39.384Z,66.23
2022-09-22T22:00:09.998Z,67.50
2022-09-22T22:02:58.752Z,67.54
2022-09-22T22:05:30.257Z,67.44
2022-09-22T22:07:58.602Z,67.53
2022-09-22T22:10:28.313Z,67.47
2022-09-22T22:12:56.665Z,67.31
2022-09-22T22:15:25.033Z,67.60
2022-09-22T22:17:55.564Z,67.66
2022-09-22T22:20:24.391Z,67.26
2022-09-22T22:22:52.618Z,67.82
2022-09-22T22:25:20.876Z,67.55
2022-09-22T22:27:50.497Z,67.67
2022-09-22T22:30:19.172Z,66.75
2022-09-22T22:32:47.624Z,67.82
2022-09-22T22:35:16.098Z,67.30
2022-09-22T22:37:45.766Z,67.79
2022-09-22T22:40:14.185Z,67.55
2022-09-22T22:42:42.475Z,67.75
2022-09-22T22:45:12.404Z,67.51
2022-09-22T22:47:40.672Z,67.61
2022-09-22T22:50:10.984Z,67.51
2022-09-22T22:52:42.197Z,67.51
2022-09-22T22:55:10.811Z,67.80
2022-09-22T22:57:39.048Z,67.84
2022-09-22T23:00:09.326Z,67.74
2022-09-22T23:02:39.379Z,66.36
2022-09-22T23:05:09.022Z,68.03
2022-09-22T23:07:38.313Z,67.77
2022-09-22T23:10:08.109Z,67.84
2022-09-22T23:12:40.255Z,67.52
2022-09-22T23:15:10.707Z,67.74
2022-09-22T23:17:40.462Z,67.86
2022-09-22T23:20:10.205Z,67.75
2022-09-22T23:22:38.458Z,68.00
2022-09-22T23:25:07.390Z,68.06
2022-09-22T23:27:35.614Z,68.18
2022-09-22T23:30:03.963Z,69.20
2022-09-22T23:32:32.190Z,68.69
2022-09-22T23:35:01.794Z,68.14
2022-09-22T23:37:30.063Z,68.11
2022-09-22T23:39:58.361Z,68.01
2022-09-22T23:42:26.647Z,68.04
2022-09-22T23:44:54.901Z,68.24
2022-09-22T23:47:23.154Z,68.23
2022-09-22T23:49:51.409Z,68.34
2022-09-22T23:52:22.517Z,68.17
2022-09-22T23:54:51.052Z,68.15
2022-09-22T23:57:19.269Z,68.22
2022-09-22T23:59:47.537Z,68.13
